sensor_id;sensor_type;location;lat;lon;timestamp;pressure;altitude;pressure_sealevel;temperature;humidity
19884;BME280;10104;50.732;10.174;2024-03-25T00:00:04;96805.31;;;3.72;100.00
19884;BME280;10104;50.732;10.174;2024-03-25T00:02:49;96801.13;;;3.63;100.00
19884;BME280;10104;50.732;10.174;2024-03-25T00:05:28;96799.84;;;3.59;100.00
19884;BME280;10104;50.732;10.174;2024-03-25T00:08:08;96799.84;;;3.59;100.00
19884;BME280;10104;50.732;10.174;2024-03-25T00:10:48;96785.31;;;3.56;100.00
19884;BME280;10104;50.732;10.174;2024-03-25T00:13:27;96790.66;;;3.63;100.00
19884;BME280;10104;50.732;10.174;2024-03-25T00:16:06;96796.53;;;3.65;100.00
19884;BME280;10104;50.732;10.174;2024-03-25T00:18:45;96793.28;;;3.63;100.00
19884;BME280;10104;50.732;10.174;2024-03-25T00:21:25;96798.16;;;3.66;100.00
19884;BME280;10104;50.732;10.174;2024-03-25T00:24:04;96798.41;;;3.79;100.00
19884;BME280;10104;50.732;10.174;2024-03-25T00:26:43;96795.34;;;3.76;100.00
19884;BME280;10104;50.732;10.174;2024-03-25T00:29:23;96792.50;;;3.85;100.00
19884;BME280;10104;50.732;10.174;2024-03-25T00:32:02;96799.88;;;3.82;100.00
19884;BME280;10104;50.732;10.174;2024-03-25T00:34:41;96797.59;;;3.79;100.00
19884;BME280;10104;50.732;10.174;2024-03-25T00:37:20;96797.44;;;3.80;100.00
19884;BME280;10104;50.732;10.174;2024-03-25T00:39:59;96797.59;;;3.79;100.00
19884;BME280;10104;50.732;10.174;2024-03-25T00:42:39;96796.78;;;3.78;100.00
19884;BME280;10104;50.732;10.174;2024-03-25T00:45:18;96803.50;;;3.81;100.00
19884;BME280;10104;50.732;10.174;2024-03-25T00:47:57;96791.97;;;3.90;100.00
19884;BME280;10104;50.732;10.174;2024-03-25T00:50:38;96800.13;;;3.95;100.00
19884;BME280;10104;50.732;10.174;2024-03-25T00:53:17;96794.81;;;4.03;100.00
19884;BME280;10104;50.732;10.174;2024-03-25T00:55:57;96794.81;;;4.03;100.00
19884;BME280;10104;50.732;10.174;2024-03-25T00:58:36;96796.81;;;4.01;100.00
19884;BME280;10104;50.732;10.174;2024-03-25T01:01:15;96804.31;;;4.04;100.00
19884;BME280;10104;50.732;10.174;2024-03-25T01:03:54;96792.22;;;4.03;100.00
19884;BME280;10104;50.732;10.174;2024-03-25T01:06:34;96796.28;;;4.05;100.00
19884;BME280;10104;50.732;10.174;2024-03-25T01:09:13;96798.75;;;4.07;100.00
19884;BME280;10104;50.732;10.174;2024-03-25T01:11:53;96797.28;;;4.04;100.00
19884;BME280;10104;50.732;10.174;2024-03-25T01:14:32;96793.50;;;4.07;100.00
19884;BME280;10104;50.732;10.174;2024-03-25T01:17:11;96795.66;;;4.03;100.00
19884;BME280;10104;50.732;10.174;2024-03-25T01:19:49;96798.56;;;4.08;100.00
19884;BME280;10104;50.732;10.174;2024-03-25T01:22:29;96791.06;;;4.05;100.00
19884;BME280;10104;50.732;10.174;2024-03-25T01:25:08;96792.50;;;4.08;100.00
19884;BME280;10104;50.732;10.174;2024-03-25T01:27:47;96792.50;;;4.08;100.00
19884;BME280;10104;50.732;10.174;2024-03-25T01:30:27;96800.88;;;4.03;100.00
19884;BME280;10104;50.732;10.174;2024-03-25T01:33:08;96794.81;;;4.03;100.00
19884;BME280;10104;50.732;10.174;2024-03-25T01:35:47;96793.88;;;3.96;100.00
19884;BME280;10104;50.732;10.174;2024-03-25T01:38:26;96801.56;;;3.97;100.00
19884;BME280;10104;50.732;10.174;2024-03-25T01:41:12;96806.22;;;3.87;100.00
19884;BME280;10104;50.732;10.174;2024-03-25T01:43:52;96810.53;;;3.80;100.00
19884;BME280;10104;50.732;10.174;2024-03-25T01:46:31;96810.53;;;3.80;100.00
19884;BME280;10104;50.732;10.174;2024-03-25T01:49:11;96801.06;;;3.71;100.00
19884;BME280;10104;50.732;10.174;2024-03-25T01:51:50;96806.31;;;3.71;100.00
19884;BME280;10104;50.732;10.174;2024-03-25T01:54:29;96806.00;;;3.66;100.00
19884;BME280;10104;50.732;10.174;2024-03-25T01:57:08;96806.31;;;3.71;100.00
19884;BME280;10104;50.732;10.174;2024-03-25T01:59:48;96810.56;;;3.72;100.00
19884;BME280;10104;50.732;10.174;2024-03-25T02:02:27;96818.09;;;3.75;100.00
19884;BME280;10104;50.732;10.174;2024-03-25T02:05:07;96818.22;;;3.82;100.00
19884;BME280;10104;50.732;10.174;2024-03-25T02:07:48;96813.97;;;3.81;100.00
19884;BME280;10104;50.732;10.174;2024-03-25T02:10:29;96818.84;;;3.84;100.00
19884;BME280;10104;50.732;10.174;2024-03-25T02:13:09;96826.19;;;3.88;100.00
19884;BME280;10104;50.732;10.174;2024-03-25T02:15:48;96825.84;;;3.91;100.00
19884;BME280;10104;50.732;10.174;2024-03-25T02:18:30;96828.28;;;3.93;100.00
19884;BME280;10104;50.732;10.174;2024-03-25T02:21:10;96836.31;;;3.91;100.00
19884;BME280;10104;50.732;10.174;2024-03-25T02:23:50;96836.66;;;3.88;100.00
19884;BME280;10104;50.732;10.174;2024-03-25T02:26:32;96838.13;;;3.91;100.00
19884;BME280;10104;50.732;10.174;2024-03-25T02:29:11;96834.50;;;3.92;100.00
19884;BME280;10104;50.732;10.174;2024-03-25T02:31:50;96838.59;;;3.94;100.00
19884;BME280;10104;50.732;10.174;2024-03-25T02:34:31;96851.38;;;3.89;100.00
19884;BME280;10104;50.732;10.174;2024-03-25T02:37:11;96841.41;;;3.85;100.00
19884;BME280;10104;50.732;10.174;2024-03-25T02:39:50;96843.22;;;3.84;100.00
19884;BME280;10104;50.732;10.174;2024-03-25T02:42:30;96842.22;;;3.85;100.00
19884;BME280;10104;50.732;10.174;2024-03-25T02:45:09;96845.34;;;3.89;100.00
19884;BME280;10104;50.732;10.174;2024-03-25T02:47:49;96839.78;;;3.84;100.00
19884;BME280;10104;50.732;10.174;2024-03-25T02:50:29;96847.47;;;3.85;100.00
19884;BME280;10104;50.732;10.174;2024-03-25T02:53:08;96848.59;;;3.91;100.00
19884;BME280;10104;50.732;10.174;2024-03-25T02:55:47;96839.78;;;3.84;100.00
19884;BME280;10104;50.732;10.174;2024-03-25T02:58:26;96850.91;;;3.86;100.00
19884;BME280;10104;50.732;10.174;2024-03-25T03:01:05;96839.63;;;3.85;100.00
19884;BME280;10104;50.732;10.174;2024-03-25T03:03:44;96857.63;;;3.88;100.00
19884;BME280;10104;50.732;10.174;2024-03-25T03:06:23;96846.44;;;3.94;100.00
19884;BME280;10104;50.732;10.174;2024-03-25T03:09:03;96856.16;;;3.86;100.00
19884;BME280;10104;50.732;10.174;2024-03-25T03:11:42;96852.03;;;3.91;100.00
19884;BME280;10104;50.732;10.174;2024-03-25T03:14:21;96853.19;;;3.89;100.00
19884;BME280;10104;50.732;10.174;2024-03-25T03:17:01;96855.97;;;3.87;100.00
19884;BME280;10104;50.732;10.174;2024-03-25T03:19:45;96857.63;;;3.88;100.00
19884;BME280;10104;50.732;10.174;2024-03-25T03:22:24;96861.06;;;3.89;100.00
19884;BME280;10104;50.732;10.174;2024-03-25T03:25:03;96869.22;;;3.86;100.00
19884;BME280;10104;50.732;10.174;2024-03-25T03:27:42;96871.16;;;3.92;100.00
19884;BME280;10104;50.732;10.174;2024-03-25T03:30:22;96858.94;;;3.84;100.00
19884;BME280;10104;50.732;10.174;2024-03-25T03:33:01;96855.97;;;3.87;100.00
19884;BME280;10104;50.732;10.174;2024-03-25T03:35:40;96855.31;;;3.85;100.00
19884;BME280;10104;50.732;10.174;2024-03-25T03:38:19;96862.66;;;3.90;100.00
19884;BME280;10104;50.732;10.174;2024-03-25T03:40:59;96860.91;;;3.82;100.00
19884;BME280;10104;50.732;10.174;2024-03-25T03:43:39;96866.31;;;3.81;100.00
19884;BME280;10104;50.732;10.174;2024-03-25T03:46:18;96867.16;;;3.73;100.00
19884;BME280;10104;50.732;10.174;2024-03-25T03:48:57;96871.41;;;3.74;100.00
19884;BME280;10104;50.732;10.174;2024-03-25T03:51:36;96877.94;;;3.78;100.00
19884;BME280;10104;50.732;10.174;2024-03-25T03:54:16;96885.47;;;3.81;100.00
19884;BME280;10104;50.732;10.174;2024-03-25T03:56:54;96894.47;;;3.71;100.00
19884;BME280;10104;50.732;10.174;2024-03-25T03:59:33;96892.69;;;3.71;100.00
19884;BME280;10104;50.732;10.174;2024-03-25T04:02:13;96893.19;;;3.75;100.00
19884;BME280;10104;50.732;10.174;2024-03-25T04:04:52;96890.88;;;3.72;100.00
19884;BME280;10104;50.732;10.174;2024-03-25T04:07:32;96894.47;;;3.79;100.00
19884;BME280;10104;50.732;10.174;2024-03-25T04:10:11;96892.72;;;3.63;100.00
19884;BME280;10104;50.732;10.174;2024-03-25T04:12:50;96890.97;;;3.55;100.00
19884;BME280;10104;50.732;10.174;2024-03-25T04:15:34;96894.72;;;3.53;100.00
19884;BME280;10104;50.732;10.174;2024-03-25T04:18:13;96897.53;;;3.51;100.00
19884;BME280;10104;50.732;10.174;2024-03-25T04:20:52;96894.72;;;3.53;100.00
19884;BME280;10104;50.732;10.174;2024-03-25T04:23:32;96898.16;;;3.53;100.00
19884;BME280;10104;50.732;10.174;2024-03-25T04:26:12;96896.19;;;3.63;100.00
19884;BME280;10104;50.732;10.174;2024-03-25T04:28:51;96899.59;;;3.64;100.00
19884;BME280;10104;50.732;10.174;2024-03-25T04:31:31;96901.88;;;3.67;100.00
19884;BME280;10104;50.732;10.174;2024-03-25T04:34:11;96901.88;;;3.67;100.00
19884;BME280;10104;50.732;10.174;2024-03-25T04:36:50;96907.25;;;3.74;100.00
19884;BME280;10104;50.732;10.174;2024-03-25T04:39:28;96907.41;;;3.72;100.00
19884;BME280;10104;50.732;10.174;2024-03-25T04:42:08;96913.47;;;3.73;100.00
19884;BME280;10104;50.732;10.174;2024-03-25T04:44:47;96907.56;;;3.71;100.00
19884;BME280;10104;50.732;10.174;2024-03-25T04:47:26;96906.44;;;3.73;100.00
19884;BME280;10104;50.732;10.174;2024-03-25T04:50:06;96915.25;;;3.72;100.00
19884;BME280;10104;50.732;10.174;2024-03-25T04:52:46;96917.38;;;3.77;100.00
19884;BME280;10104;50.732;10.174;2024-03-25T04:55:25;96920.66;;;3.71;100.00
19884;BME280;10104;50.732;10.174;2024-03-25T04:58:04;96917.06;;;3.72;100.00
19884;BME280;10104;50.732;10.174;2024-03-25T05:00:43;96917.88;;;3.72;100.00
19884;BME280;10104;50.732;10.174;2024-03-25T05:03:22;96920.34;;;3.74;100.00
19884;BME280;10104;50.732;10.174;2024-03-25T05:06:00;96916.72;;;3.75;100.00
19884;BME280;10104;50.732;10.174;2024-03-25T05:08:39;96923.94;;;3.73;100.00
19884;BME280;10104;50.732;10.174;2024-03-25T05:11:18;96930.81;;;3.65;100.00
19884;BME280;10104;50.732;10.174;2024-03-25T05:13:58;96935.75;;;3.60;100.00
19884;BME280;10104;50.732;10.174;2024-03-25T05:16:37;96943.59;;;3.60;100.00
19884;BME280;10104;50.732;10.174;2024-03-25T05:19:16;96943.75;;;3.67;100.00
19884;BME280;10104;50.732;10.174;2024-03-25T05:21:55;96944.09;;;3.64;100.00
19884;BME280;10104;50.732;10.174;2024-03-25T05:24:34;96952.56;;;3.66;100.00
19884;BME280;10104;50.732;10.174;2024-03-25T05:27:13;96941.47;;;3.64;100.00
19884;BME280;10104;50.732;10.174;2024-03-25T05:29:52;96951.75;;;3.65;100.00
19884;BME280;10104;50.732;10.174;2024-03-25T05:32:31;96951.59;;;3.67;100.00
19884;BME280;10104;50.732;10.174;2024-03-25T05:35:09;96962.22;;;3.65;100.00
19884;BME280;10104;50.732;10.174;2024-03-25T05:37:49;96960.28;;;3.67;100.00
19884;BME280;10104;50.732;10.174;2024-03-25T05:40:28;96957.81;;;3.74;100.00
19884;BME280;10104;50.732;10.174;2024-03-25T05:43:07;96968.94;;;3.76;100.00
19884;BME280;10104;50.732;10.174;2024-03-25T05:45:53;96969.69;;;3.85;100.00
19884;BME280;10104;50.732;10.174;2024-03-25T05:48:33;96964.81;;;3.82;100.00
19884;BME280;10104;50.732;10.174;2024-03-25T05:51:12;96973.13;;;3.85;100.00
19884;BME280;10104;50.732;10.174;2024-03-25T05:53:52;96980.19;;;3.85;100.00
19884;BME280;10104;50.732;10.174;2024-03-25T05:56:31;96987.50;;;3.89;100.00
19884;BME280;10104;50.732;10.174;2024-03-25T05:59:10;96974.63;;;3.88;100.00
19884;BME280;10104;50.732;10.174;2024-03-25T06:01:49;96980.47;;;3.98;100.00
19884;BME280;10104;50.732;10.174;2024-03-25T06:04:28;96983.22;;;4.04;100.00
19884;BME280;10104;50.732;10.174;2024-03-25T06:07:07;96988.28;;;4.06;100.00
19884;BME280;10104;50.732;10.174;2024-03-25T06:09:47;96977.63;;;4.07;100.00
19884;BME280;10104;50.732;10.174;2024-03-25T06:12:26;96985.38;;;4.01;100.00
19884;BME280;10104;50.732;10.174;2024-03-25T06:15:05;96986.50;;;4.06;100.00
19884;BME280;10104;50.732;10.174;2024-03-25T06:17:45;96985.00;;;4.12;100.00
19884;BME280;10104;50.732;10.174;2024-03-25T06:20:24;96990.41;;;4.11;100.00
19884;BME280;10104;50.732;10.174;2024-03-25T06:23:04;96984.31;;;4.18;100.00
19884;BME280;10104;50.732;10.174;2024-03-25T06:25:44;96994.59;;;4.20;100.00
19884;BME280;10104;50.732;10.174;2024-03-25T06:28:23;96993.38;;;4.38;100.00
19884;BME280;10104;50.732;10.174;2024-03-25T06:31:02;96990.84;;;4.53;100.00
19884;BME280;10104;50.732;10.174;2024-03-25T06:33:59;96993.19;;;4.71;100.00
19884;BME280;10104;50.732;10.174;2024-03-25T06:36:56;96996.59;;;4.79;100.00
19884;BME280;10104;50.732;10.174;2024-03-25T06:39:35;96989.34;;;4.81;100.00
19884;BME280;10104;50.732;10.174;2024-03-25T06:42:15;96989.41;;;4.96;100.00
19884;BME280;10104;50.732;10.174;2024-03-25T06:44:54;96992.31;;;5.01;100.00
19884;BME280;10104;50.732;10.174;2024-03-25T06:47:33;96999.75;;;4.98;100.00
19884;BME280;10104;50.732;10.174;2024-03-25T06:50:12;97006.50;;;5.15;100.00
19884;BME280;10104;50.732;10.174;2024-03-25T06:52:51;97015.81;;;4.95;100.00
19884;BME280;10104;50.732;10.174;2024-03-25T06:55:30;97019.22;;;5.03;100.00
19884;BME280;10104;50.732;10.174;2024-03-25T06:58:09;97022.28;;;5.07;100.00
19884;BME280;10104;50.732;10.174;2024-03-25T07:00:49;97018.50;;;5.09;100.00
19884;BME280;10104;50.732;10.174;2024-03-25T07:03:28;97021.66;;;5.27;100.00
19884;BME280;10104;50.732;10.174;2024-03-25T07:06:07;97027.28;;;5.24;100.00
19884;BME280;10104;50.732;10.174;2024-03-25T07:08:46;97029.41;;;4.98;100.00
19884;BME280;10104;50.732;10.174;2024-03-25T07:11:26;97025.50;;;4.94;100.00
19884;BME280;10104;50.732;10.174;2024-03-25T07:14:05;97029.34;;;5.06;100.00
19884;BME280;10104;50.732;10.174;2024-03-25T07:16:45;97023.09;;;5.07;100.00
19884;BME280;10104;50.732;10.174;2024-03-25T07:19:25;97032.44;;;5.33;100.00
19884;BME280;10104;50.732;10.174;2024-03-25T07:22:05;97032.50;;;5.24;100.00
19884;BME280;10104;50.732;10.174;2024-03-25T07:24:44;97037.72;;;5.47;100.00
19884;BME280;10104;50.732;10.174;2024-03-25T07:27:24;97030.00;;;5.83;100.00
19884;BME280;10104;50.732;10.174;2024-03-25T07:30:03;97034.63;;;5.81;100.00
19884;BME280;10104;50.732;10.174;2024-03-25T07:32:45;97037.72;;;5.85;100.00
19884;BME280;10104;50.732;10.174;2024-03-25T07:35:25;97040.91;;;5.95;100.00
19884;BME280;10104;50.732;10.174;2024-03-25T07:38:04;97037.13;;;5.97;100.00
19884;BME280;10104;50.732;10.174;2024-03-25T07:40:43;97039.53;;;5.84;100.00
19884;BME280;10104;50.732;10.174;2024-03-25T07:43:22;97044.38;;;5.95;100.00
19884;BME280;10104;50.732;10.174;2024-03-25T07:46:01;97053.00;;;6.04;100.00
19884;BME280;10104;50.732;10.174;2024-03-25T07:48:40;97050.00;;;5.92;100.00
19884;BME280;10104;50.732;10.174;2024-03-25T07:51:21;97049.69;;;5.87;100.00
19884;BME280;10104;50.732;10.174;2024-03-25T07:54:00;97052.34;;;6.02;98.96
19884;BME280;10104;50.732;10.174;2024-03-25T07:56:39;97055.97;;;6.30;96.45
19884;BME280;10104;50.732;10.174;2024-03-25T07:59:18;97059.06;;;6.34;96.35
19884;BME280;10104;50.732;10.174;2024-03-25T08:01:58;97054.59;;;6.49;95.29
19884;BME280;10104;50.732;10.174;2024-03-25T08:04:37;97060.75;;;6.71;94.14
19884;BME280;10104;50.732;10.174;2024-03-25T08:07:16;97054.53;;;6.93;98.28
19884;BME280;10104;50.732;10.174;2024-03-25T08:09:56;97053.69;;;6.93;93.88
19884;BME280;10104;50.732;10.174;2024-03-25T08:12:35;97056.38;;;6.78;93.19
19884;BME280;10104;50.732;10.174;2024-03-25T08:15:14;97057.94;;;6.58;93.96
19884;BME280;10104;50.732;10.174;2024-03-25T08:17:53;97065.94;;;6.64;95.69
19884;BME280;10104;50.732;10.174;2024-03-25T08:20:32;97066.84;;;6.42;93.51
19884;BME280;10104;50.732;10.174;2024-03-25T08:23:11;97067.22;;;6.24;95.77
19884;BME280;10104;50.732;10.174;2024-03-25T08:25:50;97071.56;;;6.46;97.89
19884;BME280;10104;50.732;10.174;2024-03-25T08:28:30;97068.91;;;6.76;98.81
19884;BME280;10104;50.732;10.174;2024-03-25T08:31:09;97073.34;;;6.61;94.62
19884;BME280;10104;50.732;10.174;2024-03-25T08:33:48;97074.19;;;6.46;90.10
19884;BME280;10104;50.732;10.174;2024-03-25T08:36:27;97071.75;;;6.60;92.16
19884;BME280;10104;50.732;10.174;2024-03-25T08:39:06;97075.56;;;6.93;90.37
19884;BME280;10104;50.732;10.174;2024-03-25T08:41:46;97077.78;;;6.75;87.09
19884;BME280;10104;50.732;10.174;2024-03-25T08:44:25;97068.66;;;6.92;88.96
19884;BME280;10104;50.732;10.174;2024-03-25T08:47:04;97072.19;;;6.99;85.37
19884;BME280;10104;50.732;10.174;2024-03-25T08:49:43;97054.97;;;7.18;85.27
19884;BME280;10104;50.732;10.174;2024-03-25T08:52:22;97059.06;;;7.42;88.37
19884;BME280;10104;50.732;10.174;2024-03-25T08:55:01;97057.84;;;7.23;81.21
19884;BME280;10104;50.732;10.174;2024-03-25T08:57:41;97061.44;;;7.37;83.10
19884;BME280;10104;50.732;10.174;2024-03-25T09:00:20;97060.94;;;7.26;81.23
19884;BME280;10104;50.732;10.174;2024-03-25T09:02:59;97057.50;;;7.26;80.77
19884;BME280;10104;50.732;10.174;2024-03-25T09:05:38;97067.41;;;7.45;81.83
19884;BME280;10104;50.732;10.174;2024-03-25T09:08:17;97061.56;;;7.50;78.78
19884;BME280;10104;50.732;10.174;2024-03-25T09:10:56;97065.44;;;8.03;77.14
19884;BME280;10104;50.732;10.174;2024-03-25T09:13:41;97063.53;;;8.52;73.91
19884;BME280;10104;50.732;10.174;2024-03-25T09:16:21;97060.03;;;8.39;73.10
19884;BME280;10104;50.732;10.174;2024-03-25T09:19:00;97055.53;;;8.39;71.98
19884;BME280;10104;50.732;10.174;2024-03-25T09:21:38;97062.25;;;8.42;71.15
19884;BME280;10104;50.732;10.174;2024-03-25T09:24:17;97056.06;;;8.28;66.83
19884;BME280;10104;50.732;10.174;2024-03-25T09:26:58;97055.72;;;8.31;66.02
19884;BME280;10104;50.732;10.174;2024-03-25T09:29:37;97059.25;;;8.45;68.33
19884;BME280;10104;50.732;10.174;2024-03-25T09:32:16;97050.91;;;8.41;69.31
19884;BME280;10104;50.732;10.174;2024-03-25T09:34:59;97058.28;;;7.97;69.37
19884;BME280;10104;50.732;10.174;2024-03-25T09:37:38;97061.56;;;7.99;69.17
19884;BME280;10104;50.732;10.174;2024-03-25T09:40:18;97064.66;;;8.09;69.06
19884;BME280;10104;50.732;10.174;2024-03-25T09:42:57;97053.66;;;7.99;67.57
19884;BME280;10104;50.732;10.174;2024-03-25T09:45:39;97063.44;;;8.05;63.96
19884;BME280;10104;50.732;10.174;2024-03-25T09:48:21;97058.94;;;8.68;60.40
19884;BME280;10104;50.732;10.174;2024-03-25T09:51:01;97045.63;;;8.96;60.54
19884;BME280;10104;50.732;10.174;2024-03-25T09:53:41;97045.41;;;8.90;60.48
19884;BME280;10104;50.732;10.174;2024-03-25T09:56:20;97044.47;;;9.11;60.86
19884;BME280;10104;50.732;10.174;2024-03-25T09:59:00;97045.16;;;8.72;62.47
19884;BME280;10104;50.732;10.174;2024-03-25T10:01:39;97041.16;;;8.89;61.83
19884;BME280;10104;50.732;10.174;2024-03-25T10:04:20;97042.84;;;9.10;62.40
19884;BME280;10104;50.732;10.174;2024-03-25T10:06:59;97048.50;;;8.94;61.26
19884;BME280;10104;50.732;10.174;2024-03-25T10:09:38;97045.41;;;8.84;60.34
19884;BME280;10104;50.732;10.174;2024-03-25T10:12:17;97048.69;;;8.92;63.02
19884;BME280;10104;50.732;10.174;2024-03-25T10:14:56;97046.69;;;9.08;60.85
19884;BME280;10104;50.732;10.174;2024-03-25T10:17:36;97042.59;;;8.92;59.48
19884;BME280;10104;50.732;10.174;2024-03-25T10:20:15;97045.00;;;8.87;61.00
19884;BME280;10104;50.732;10.174;2024-03-25T10:22:55;97038.69;;;8.81;60.17
19884;BME280;10104;50.732;10.174;2024-03-25T10:25:35;97044.81;;;8.95;56.14
19884;BME280;10104;50.732;10.174;2024-03-25T10:28:14;97027.00;;;9.17;55.67
19884;BME280;10104;50.732;10.174;2024-03-25T10:30:53;97033.16;;;9.44;57.17
19884;BME280;10104;50.732;10.174;2024-03-25T10:33:32;97029.09;;;9.48;55.40
19884;BME280;10104;50.732;10.174;2024-03-25T10:36:12;97033.97;;;9.77;60.39
19884;BME280;10104;50.732;10.174;2024-03-25T10:38:56;97034.38;;;9.67;58.87
19884;BME280;10104;50.732;10.174;2024-03-25T10:41:36;97022.75;;;9.82;57.91
19884;BME280;10104;50.732;10.174;2024-03-25T10:44:16;97027.84;;;9.70;56.31
19884;BME280;10104;50.732;10.174;2024-03-25T10:46:59;97021.09;;;10.13;55.24
19884;BME280;10104;50.732;10.174;2024-03-25T10:49:48;97024.16;;;10.30;56.19
19884;BME280;10104;50.732;10.174;2024-03-25T10:52:29;97019.53;;;9.99;56.11
19884;BME280;10104;50.732;10.174;2024-03-25T10:55:09;97019.09;;;10.09;54.17
19884;BME280;10104;50.732;10.174;2024-03-25T10:57:49;97015.44;;;10.03;55.36
19884;BME280;10104;50.732;10.174;2024-03-25T11:00:29;97008.97;;;9.80;55.04
19884;BME280;10104;50.732;10.174;2024-03-25T11:03:10;97011.59;;;9.80;53.39
19884;BME280;10104;50.732;10.174;2024-03-25T11:05:50;97012.44;;;9.67;55.25
19884;BME280;10104;50.732;10.174;2024-03-25T11:08:32;97006.31;;;9.93;53.79
19884;BME280;10104;50.732;10.174;2024-03-25T11:11:11;97005.44;;;10.25;51.96
19884;BME280;10104;50.732;10.174;2024-03-25T11:13:51;97001.91;;;10.51;52.78
19884;BME280;10104;50.732;10.174;2024-03-25T11:16:31;97000.00;;;10.65;52.57
19884;BME280;10104;50.732;10.174;2024-03-25T11:19:11;97003.59;;;10.26;53.85
19884;BME280;10104;50.732;10.174;2024-03-25T11:21:50;97004.06;;;9.77;53.57
19884;BME280;10104;50.732;10.174;2024-03-25T11:24:29;97003.47;;;9.74;55.99
19884;BME280;10104;50.732;10.174;2024-03-25T11:27:08;97006.69;;;9.90;55.43
19884;BME280;10104;50.732;10.174;2024-03-25T11:29:48;97003.03;;;9.91;55.63
19884;BME280;10104;50.732;10.174;2024-03-25T11:32:27;96997.69;;;10.37;55.13
19884;BME280;10104;50.732;10.174;2024-03-25T11:35:07;96988.56;;;10.20;53.74
19884;BME280;10104;50.732;10.174;2024-03-25T11:37:47;96988.34;;;10.28;53.81
19884;BME280;10104;50.732;10.174;2024-03-25T11:40:26;96989.81;;;10.68;55.85
19884;BME280;10104;50.732;10.174;2024-03-25T11:43:05;96989.25;;;10.98;52.55
19884;BME280;10104;50.732;10.174;2024-03-25T11:45:47;96986.97;;;11.64;51.94
19884;BME280;10104;50.732;10.174;2024-03-25T11:48:29;96980.13;;;11.99;51.93
19884;BME280;10104;50.732;10.174;2024-03-25T11:51:12;96986.72;;;11.16;51.18
19884;BME280;10104;50.732;10.174;2024-03-25T11:53:51;96985.03;;;11.21;52.60
19884;BME280;10104;50.732;10.174;2024-03-25T11:56:31;96985.22;;;10.88;50.77
19884;BME280;10104;50.732;10.174;2024-03-25T11:59:10;96984.34;;;10.63;51.16
19884;BME280;10104;50.732;10.174;2024-03-25T12:01:51;96978.66;;;10.60;49.06
19884;BME280;10104;50.732;10.174;2024-03-25T12:04:31;96965.56;;;11.09;49.84
19884;BME280;10104;50.732;10.174;2024-03-25T12:07:14;96967.72;;;11.19;51.54
19884;BME280;10104;50.732;10.174;2024-03-25T12:09:54;96958.94;;;11.74;49.78
19884;BME280;10104;50.732;10.174;2024-03-25T12:12:52;96955.00;;;11.84;48.42
19884;BME280;10104;50.732;10.174;2024-03-25T12:15:32;96958.28;;;11.97;47.50
19884;BME280;10104;50.732;10.174;2024-03-25T12:18:11;96965.09;;;12.11;47.70
19884;BME280;10104;50.732;10.174;2024-03-25T12:20:51;96954.56;;;12.23;48.43
19884;BME280;10104;50.732;10.174;2024-03-25T12:23:34;96945.69;;;12.47;47.35
19884;BME280;10104;50.732;10.174;2024-03-25T12:26:13;96950.28;;;12.40;46.93
19884;BME280;10104;50.732;10.174;2024-03-25T12:28:53;96942.31;;;11.86;48.71
19884;BME280;10104;50.732;10.174;2024-03-25T12:31:32;96947.31;;;11.75;48.42
19884;BME280;10104;50.732;10.174;2024-03-25T12:34:16;96939.66;;;11.61;48.24
19884;BME280;10104;50.732;10.174;2024-03-25T12:37:03;96939.97;;;10.97;47.88
19884;BME280;10104;50.732;10.174;2024-03-25T12:39:48;96935.34;;;10.85;49.22
19884;BME280;10104;50.732;10.174;2024-03-25T12:42:27;96933.81;;;11.03;49.07
19884;BME280;10104;50.732;10.174;2024-03-25T12:45:06;96923.13;;;11.16;50.24
19884;BME280;10104;50.732;10.174;2024-03-25T12:47:46;96920.72;;;11.08;49.05
19884;BME280;10104;50.732;10.174;2024-03-25T12:50:25;96919.22;;;10.87;49.64
19884;BME280;10104;50.732;10.174;2024-03-25T12:53:04;96917.16;;;11.20;48.69
19884;BME280;10104;50.732;10.174;2024-03-25T12:55:43;96912.16;;;11.55;48.63
19884;BME280;10104;50.732;10.174;2024-03-25T12:58:22;96913.72;;;11.63;48.70
19884;BME280;10104;50.732;10.174;2024-03-25T13:01:01;96914.56;;;11.39;49.13
19884;BME280;10104;50.732;10.174;2024-03-25T13:03:41;96911.72;;;11.15;48.11
19884;BME280;10104;50.732;10.174;2024-03-25T13:06:20;96909.16;;;11.27;48.48
19884;BME280;10104;50.732;10.174;2024-03-25T13:08:59;96903.41;;;11.55;48.91
19884;BME280;10104;50.732;10.174;2024-03-25T13:11:38;96892.25;;;11.71;48.24
19884;BME280;10104;50.732;10.174;2024-03-25T13:14:18;96888.13;;;13.43;44.56
19884;BME280;10104;50.732;10.174;2024-03-25T13:16:57;96883.63;;;14.30;42.93
19884;BME280;10104;50.732;10.174;2024-03-25T13:19:36;96876.34;;;13.62;42.86
19884;BME280;10104;50.732;10.174;2024-03-25T13:22:15;96884.06;;;13.40;44.10
19884;BME280;10104;50.732;10.174;2024-03-25T13:24:55;96875.75;;;13.25;44.74
19884;BME280;10104;50.732;10.174;2024-03-25T13:27:33;96875.56;;;12.67;44.47
19884;BME280;10104;50.732;10.174;2024-03-25T13:30:13;96874.81;;;12.48;44.10
19884;BME280;10104;50.732;10.174;2024-03-25T13:32:52;96877.22;;;12.38;43.76
19884;BME280;10104;50.732;10.174;2024-03-25T13:35:31;96878.09;;;12.32;46.75
19884;BME280;10104;50.732;10.174;2024-03-25T13:38:10;96881.53;;;12.21;45.56
19884;BME280;10104;50.732;10.174;2024-03-25T13:40:49;96878.63;;;12.40;47.04
19884;BME280;10104;50.732;10.174;2024-03-25T13:43:29;96877.53;;;12.11;46.85
19884;BME280;10104;50.732;10.174;2024-03-25T13:46:08;96879.16;;;11.94;45.73
19884;BME280;10104;50.732;10.174;2024-03-25T13:48:48;96873.25;;;12.10;47.30
19884;BME280;10104;50.732;10.174;2024-03-25T13:51:27;96870.41;;;12.42;45.58
19884;BME280;10104;50.732;10.174;2024-03-25T13:54:07;96865.22;;;12.77;45.58
19884;BME280;10104;50.732;10.174;2024-03-25T13:56:46;96863.63;;;12.76;48.40